createdAt,value
2024-01-22T00:02:23.820Z,8.28
2024-01-22T00:04:50.634Z,8.22
2024-01-22T00:07:17.252Z,8.26
2024-01-22T00:09:43.963Z,8.20
2024-01-22T00:12:11.155Z,8.37
2024-01-22T00:14:38.525Z,8.27
2024-01-22T00:17:05.442Z,8.27
2024-01-22T00:19:35.275Z,8.50
2024-01-22T00:22:02.182Z,8.33
2024-01-22T00:24:28.853Z,8.32
2024-01-22T00:26:55.526Z,8.39
2024-01-22T00:29:22.198Z,8.33
2024-01-22T00:31:48.989Z,8.45
2024-01-22T00:34:15.785Z,8.44
2024-01-22T00:36:42.675Z,8.43
2024-01-22T00:39:09.375Z,8.69
2024-01-22T00:41:36.179Z,8.64
2024-01-22T00:44:03.015Z,8.44
2024-01-22T00:46:30.187Z,8.39
2024-01-22T00:48:57.481Z,8.47
2024-01-22T00:51:24.747Z,8.26
2024-01-22T00:53:51.541Z,8.47
2024-01-22T00:56:18.401Z,8.49
2024-01-22T00:58:45.191Z,8.58
2024-01-22T01:01:12.234Z,8.44
2024-01-22T01:03:39.083Z,8.69
2024-01-22T01:06:06.288Z,8.47
2024-01-22T01:08:32.938Z,8.66
2024-01-22T01:11:03.084Z,8.47
2024-01-22T01:13:29.745Z,8.47
2024-01-22T01:15:56.599Z,8.53
2024-01-22T01:18:23.356Z,8.66
2024-01-22T01:20:50.211Z,8.64
2024-01-22T01:23:16.996Z,8.62
2024-01-22T01:25:43.873Z,8.68
2024-01-22T01:28:10.782Z,8.32
2024-01-22T01:30:37.656Z,8.52
2024-01-22T01:33:04.580Z,8.56
2024-01-22T01:35:31.214Z,8.65
2024-01-22T01:37:57.938Z,8.66
2024-01-22T01:40:25.410Z,8.63
2024-01-22T01:42:52.605Z,8.71
2024-01-22T01:45:19.445Z,8.46
2024-01-22T01:47:52.100Z,8.40
2024-01-22T01:50:19.262Z,8.51
2024-01-22T01:52:46.635Z,8.63
2024-01-22T01:55:13.921Z,8.65
2024-01-22T01:57:42.677Z,8.76
2024-01-22T02:00:14.082Z,8.82
2024-01-22T02:02:42.207Z,8.75
2024-01-22T02:05:10.002Z,8.89
2024-01-22T02:07:38.083Z,8.84
2024-01-22T02:10:05.266Z,8.95
2024-01-22T02:12:31.889Z,8.96
2024-01-22T02:14:58.640Z,8.98
2024-01-22T02:17:25.379Z,9.08
2024-01-22T02:19:52.480Z,9.10
2024-01-22T02:22:19.188Z,8.90
2024-01-22T02:24:46.004Z,9.05
2024-01-22T02:27:12.807Z,8.89
2024-01-22T02:29:39.607Z,9.11
2024-01-22T02:32:06.881Z,9.29
2024-01-22T02:34:33.781Z,9.24
2024-01-22T02:37:03.267Z,9.24
2024-01-22T02:39:31.040Z,9.38
2024-01-22T02:41:57.901Z,9.21
2024-01-22T02:44:24.607Z,9.34
2024-01-22T02:46:51.440Z,9.42
2024-01-22T02:49:19.246Z,9.63
2024-01-22T02:51:45.982Z,9.69
2024-01-22T02:54:15.917Z,9.72
2024-01-22T02:56:42.713Z,9.71
2024-01-22T02:59:09.501Z,9.66
2024-01-22T03:01:36.361Z,9.63
2024-01-22T03:04:03.255Z,9.55
2024-01-22T03:06:30.346Z,9.44
2024-01-22T03:08:57.125Z,9.71
2024-01-22T03:11:24.383Z,9.71
2024-01-22T03:13:51.003Z,9.70
2024-01-22T03:16:17.801Z,9.75
2024-01-22T03:18:44.684Z,9.79
2024-01-22T03:21:11.919Z,9.54
2024-01-22T03:23:39.020Z,9.69
2024-01-22T03:26:05.784Z,9.77
2024-01-22T03:28:32.599Z,9.87
2024-01-22T03:31:14.599Z,9.70
2024-01-22T03:33:41.368Z,9.83
2024-01-22T03:36:08.349Z,9.91
2024-01-22T03:38:34.964Z,9.78
2024-01-22T03:41:02.006Z,9.94
2024-01-22T03:43:28.721Z,9.92
2024-01-22T03:45:57.921Z,9.85
2024-01-22T03:48:24.804Z,9.77
2024-01-22T03:50:54.735Z,9.88
2024-01-22T03:53:22.003Z,9.84
2024-01-22T03:55:48.809Z,9.83
2024-01-22T03:58:15.550Z,9.96
2024-01-22T04:00:42.295Z,9.95
2024-01-22T04:03:09.867Z,10.04
2024-01-22T04:05:36.589Z,10.01
2024-01-22T04:08:03.413Z,9.97
2024-01-22T04:10:30.226Z,10.29
2024-01-22T04:12:57.204Z,10.10
2024-01-22T04:15:24.626Z,10.09
2024-01-22T04:17:51.630Z,10.14
2024-01-22T04:20:18.678Z,10.10
2024-01-22T04:22:45.430Z,10.06
2024-01-22T04:25:12.798Z,10.26
2024-01-22T04:27:39.435Z,10.28
2024-01-22T04:30:07.209Z,10.37
2024-01-22T04:32:34.045Z,10.23
2024-01-22T04:35:02.861Z,10.32
2024-01-22T04:37:29.698Z,10.24
2024-01-22T04:39:58.209Z,10.51
2024-01-22T04:42:25.038Z,10.61
2024-01-22T04:44:51.764Z,10.57
2024-01-22T04:47:20.003Z,10.49
2024-01-22T04:49:46.610Z,10.78
2024-01-22T04:52:14.126Z,10.82
2024-01-22T04:54:41.002Z,10.57
2024-01-22T04:57:08.385Z,10.44
2024-01-22T04:59:35.251Z,10.60
2024-01-22T05:02:02.032Z,10.67
2024-01-22T05:04:28.845Z,10.56
2024-01-22T05:06:55.677Z,10.40
2024-01-22T05:09:22.445Z,10.62
2024-01-22T05:11:50.241Z,10.41
2024-01-22T05:14:17.110Z,10.55
2024-01-22T05:16:43.872Z,10.40
2024-01-22T05:19:10.882Z,10.50
2024-01-22T05:21:37.659Z,10.51
2024-01-22T05:24:04.606Z,10.28
2024-01-22T05:26:31.466Z,10.26
2024-01-22T05:28:58.823Z,10.26
2024-01-22T05:31:25.618Z,10.37
2024-01-22T05:33:52.347Z,10.21
2024-01-22T05:36:19.307Z,10.25
2024-01-22T05:38:46.097Z,10.21
2024-01-22T05:41:13.335Z,10.36
2024-01-22T05:43:40.106Z,10.00
2024-01-22T05:46:08.037Z,10.05
2024-01-22T05:48:35.149Z,10.26
2024-01-22T05:51:02.642Z,9.94
2024-01-22T05:53:29.688Z,9.89
2024-01-22T05:55:56.407Z,10.24
2024-01-22T05:58:23.939Z,10.24
2024-01-22T06:00:50.940Z,10.26
2024-01-22T06:03:17.700Z,10.16
2024-01-22T06:05:58.902Z,10.23
2024-01-22T06:08:33.843Z,10.11
2024-01-22T06:11:06.114Z,10.46
2024-01-22T06:13:53.132Z,10.32
2024-01-22T06:16:27.730Z,10.56
2024-01-22T06:18:54.590Z,10.51
2024-01-22T06:21:27.426Z,10.60
2024-01-22T06:24:01.834Z,10.39
2024-01-22T06:26:31.754Z,10.56
2024-01-22T06:29:00.074Z,10.53
2024-01-22T06:31:27.022Z,10.69
2024-01-22T06:33:53.849Z,10.58
2024-01-22T06:36:20.818Z,10.64
2024-01-22T06:38:47.651Z,10.68
2024-01-22T06:41:16.173Z,10.47
2024-01-22T06:43:42.922Z,10.49
2024-01-22T06:46:10.511Z,10.69
2024-01-22T06:48:37.493Z,10.70
2024-01-22T06:51:04.548Z,10.62
2024-01-22T06:53:31.324Z,10.69
2024-01-22T06:55:58.335Z,10.79
2024-01-22T06:58:25.081Z,10.65
2024-01-22T07:00:52.932Z,10.77
2024-01-22T07:03:22.296Z,11.01
2024-01-22T07:05:52.684Z,11.05
2024-01-22T07:08:20.161Z,10.90
2024-01-22T07:10:47.299Z,10.81
2024-01-22T07:13:15.005Z,10.76
2024-01-22T07:18:55.061Z,10.91
2024-01-22T07:21:25.088Z,10.82
2024-01-22T07:23:51.883Z,10.77
2024-01-22T07:26:18.772Z,10.87
2024-01-22T07:28:45.618Z,10.95
2024-01-22T07:31:13.233Z,10.86
2024-01-22T07:33:40.190Z,10.79
2024-01-22T07:36:07.503Z,10.78
2024-01-22T07:38:34.713Z,10.63
2024-01-22T07:43:52.972Z,10.54
2024-01-22T07:46:20.782Z,10.42
2024-01-22T07:48:48.132Z,10.32
2024-01-22T07:51:18.960Z,10.26
2024-01-22T07:53:47.231Z,10.22
2024-01-22T07:56:15.383Z,10.10
2024-01-22T07:58:43.462Z,10.08
2024-01-22T08:01:11.064Z,10.03
2024-01-22T08:03:39.698Z,9.99
2024-01-22T08:06:08.253Z,9.93
2024-01-22T08:08:35.583Z,9.97
2024-01-22T08:11:04.111Z,9.98
2024-01-22T08:13:31.374Z,10.01
2024-01-22T08:15:58.779Z,10.02
2024-01-22T08:18:26.192Z,10.05
2024-01-22T08:20:54.572Z,10.16
2024-01-22T08:23:21.546Z,10.13
2024-01-22T08:25:48.187Z,9.98
2024-01-22T08:28:14.892Z,10.04
2024-01-22T08:30:41.907Z,10.04
2024-01-22T08:33:08.851Z,10.04
2024-01-22T08:35:36.296Z,10.02
2024-01-22T08:38:03.790Z,10.02
2024-01-22T08:40:34.907Z,10.06
2024-01-22T08:43:02.385Z,9.97
2024-01-22T08:45:38.186Z,10.03
2024-01-22T08:48:07.175Z,9.96
2024-01-22T08:51:22.025Z,9.97
2024-01-22T08:53:49.075Z,9.97
2024-01-22T08:56:22.304Z,9.99
2024-01-22T08:58:49.113Z,9.89
2024-01-22T09:01:22.452Z,9.94
2024-01-22T09:03:49.592Z,9.87
2024-01-22T09:06:23.612Z,9.90
2024-01-22T09:08:51.323Z,9.93
2024-01-22T09:11:21.112Z,9.92
2024-01-22T09:13:48.360Z,9.99
2024-01-22T09:16:19.111Z,9.95
2024-01-22T09:18:46.751Z,9.92
2024-01-22T09:21:14.216Z,9.93
2024-01-22T09:23:41.265Z,9.89
2024-01-22T09:26:09.727Z,9.97
2024-01-22T09:28:37.268Z,9.88
2024-01-22T09:31:05.002Z,9.81
2024-01-22T09:33:32.040Z,9.86
2024-01-22T09:36:00.052Z,9.71
2024-01-22T09:38:27.709Z,9.57
2024-01-22T09:40:54.890Z,9.59
2024-01-22T09:43:21.948Z,9.50
2024-01-22T09:45:51.055Z,9.48
2024-01-22T09:48:18.437Z,9.42
2024-01-22T09:50:53.275Z,9.46
2024-01-22T09:53:22.726Z,9.38
2024-01-22T09:55:54.210Z,9.30
2024-01-22T09:58:28.996Z,9.21
2024-01-22T10:01:05.014Z,9.11
2024-01-22T10:03:35.318Z,9.07
2024-01-22T10:06:04.498Z,9.12
2024-01-22T10:08:31.471Z,8.99
2024-01-22T10:11:02.761Z,8.89
2024-01-22T10:13:29.846Z,8.88
2024-01-22T10:16:12.064Z,8.81
2024-01-22T10:18:40.345Z,8.88
2024-01-22T10:21:23.649Z,8.82
2024-01-22T10:24:17.584Z,8.89
2024-01-22T10:26:52.915Z,8.93
2024-01-22T10:29:24.192Z,8.94
2024-01-22T10:31:59.377Z,8.95
2024-01-22T10:34:31.709Z,8.93
2024-01-22T10:37:10.202Z,8.96
2024-01-22T10:39:42.598Z,8.84
2024-01-22T10:42:19.919Z,8.85
2024-01-22T10:44:48.157Z,8.87
2024-01-22T10:47:17.415Z,8.89
2024-01-22T10:49:48.310Z,8.86
2024-01-22T10:52:19.044Z,8.90
2024-01-22T10:54:46.390Z,8.79
2024-01-22T10:57:25.571Z,8.74
2024-01-22T11:00:00.205Z,8.79
2024-01-22T11:02:34.054Z,8.80
2024-01-22T11:05:08.202Z,8.85
2024-01-22T11:07:40.380Z,8.88
2024-01-22T11:10:11.709Z,8.87
2024-01-22T11:12:51.311Z,8.87
2024-01-22T11:15:18.253Z,8.97
2024-01-22T11:17:45.475Z,9.00
2024-01-22T11:20:16.333Z,9.03
2024-01-22T11:22:44.267Z,9.10
2024-01-22T11:25:11.726Z,8.97
2024-01-22T11:27:42.722Z,8.93
2024-01-22T11:30:22.183Z,8.90
2024-01-22T11:32:50.381Z,8.93
2024-01-22T11:35:50.796Z,8.91
2024-01-22T11:38:42.856Z,8.93
2024-01-22T11:41:10.852Z,8.94
2024-01-22T11:43:38.539Z,8.99
2024-01-22T11:46:29.177Z,9.02
2024-01-22T11:48:56.472Z,9.05
2024-01-22T11:51:29.131Z,8.98
2024-01-22T11:53:57.933Z,9.09
2024-01-22T11:56:26.041Z,9.05
2024-01-22T11:59:03.581Z,9.01
2024-01-22T12:01:31.306Z,9.07
2024-01-22T12:04:17.570Z,9.13
2024-01-22T12:06:50.513Z,9.16
2024-01-22T12:09:17.580Z,9.12
2024-01-22T12:11:53.050Z,9.20
2024-01-22T12:14:20.306Z,9.16
2024-01-22T12:16:47.819Z,9.11
2024-01-22T12:19:16.135Z,9.08
2024-01-22T12:21:44.969Z,9.11
2024-01-22T12:24:15.997Z,9.11
2024-01-22T12:26:44.063Z,9.13
2024-01-22T12:29:21.853Z,9.04
2024-01-22T12:31:49.490Z,9.14
2024-01-22T12:34:18.646Z,9.07
2024-01-22T12:36:47.247Z,9.10
2024-01-22T12:39:20.930Z,9.21
2024-01-22T12:41:48.271Z,9.20
2024-01-22T12:44:15.172Z,9.18
2024-01-22T12:46:42.900Z,9.16
2024-01-22T12:49:10.251Z,9.14
2024-01-22T12:51:38.180Z,9.20
2024-01-22T12:54:08.191Z,9.18
2024-01-22T12:56:35.619Z,9.14
2024-01-22T12:59:02.636Z,9.21
2024-01-22T13:01:31.959Z,9.28
2024-01-22T13:04:00.777Z,9.31
2024-01-22T13:06:28.266Z,9.30
2024-01-22T13:08:55.343Z,9.29
2024-01-22T13:11:22.796Z,9.25
2024-01-22T13:13:49.701Z,9.24
2024-01-22T13:16:19.599Z,9.23
2024-01-22T13:18:48.578Z,9.25
2024-01-22T13:21:19.710Z,9.25
2024-01-22T13:23:49.464Z,9.30
2024-01-22T13:26:17.615Z,9.25
2024-01-22T13:28:44.679Z,9.14
2024-01-22T13:31:13.570Z,9.17
2024-01-22T13:33:45.181Z,9.06
2024-01-22T13:36:17.661Z,9.09
2024-01-22T13:38:44.855Z,9.08
2024-01-22T13:41:16.439Z,9.00
2024-01-22T13:43:44.211Z,8.96
2024-01-22T13:46:14.284Z,8.99
2024-01-22T13:48:45.714Z,8.94
2024-01-22T13:51:16.107Z,8.87
2024-01-22T13:53:45.893Z,8.86
2024-01-22T13:56:15.023Z,8.98
2024-01-22T13:58:44.788Z,9.04
2024-01-22T14:01:12.759Z,9.08
2024-01-22T14:03:39.977Z,8.99
2024-01-22T14:06:10.592Z,8.96
2024-01-22T14:08:37.775Z,8.88
2024-01-22T14:11:07.733Z,8.86
2024-01-22T14:13:37.287Z,8.81
2024-01-22T14:16:04.481Z,8.86
2024-01-22T14:18:33.766Z,8.82
2024-01-22T14:21:10.986Z,8.75
2024-01-22T14:23:38.409Z,8.73
2024-01-22T14:26:06.784Z,8.74
2024-01-22T14:28:33.588Z,8.75
2024-01-22T14:31:02.463Z,8.76
2024-01-22T14:33:29.653Z,8.68
2024-01-22T14:35:56.877Z,8.71
2024-01-22T14:38:29.667Z,8.68
2024-01-22T14:41:00.968Z,8.66
2024-01-22T14:43:32.090Z,8.64
2024-01-22T14:46:00.471Z,8.65
2024-01-22T14:48:32.592Z,8.65
2024-01-22T14:51:06.506Z,8.56
2024-01-22T14:53:33.968Z,8.54
2024-01-22T14:56:02.819Z,8.58
2024-01-22T14:58:32.505Z,8.62
2024-01-22T15:01:02.370Z,8.58
2024-01-22T15:03:29.589Z,8.52
2024-01-22T15:05:57.245Z,8.40
2024-01-22T15:08:25.356Z,8.39
2024-01-22T15:10:52.382Z,8.41
2024-01-22T15:13:19.253Z,8.31
2024-01-22T15:15:46.409Z,8.31
2024-01-22T15:18:13.774Z,8.28
2024-01-22T15:20:41.657Z,8.28
2024-01-22T15:23:08.613Z,8.21
2024-01-22T15:25:37.293Z,8.18
2024-01-22T15:28:05.002Z,8.27
2024-01-22T15:30:32.432Z,8.28
2024-01-22T15:33:02.131Z,8.32
2024-01-22T15:35:35.749Z,8.33
2024-01-22T15:38:04.211Z,8.27
2024-01-22T15:40:31.863Z,8.26
2024-01-22T15:43:01.639Z,8.32
2024-01-22T15:45:29.096Z,8.31
2024-01-22T15:47:56.327Z,8.27
2024-01-22T15:50:27.389Z,8.28
2024-01-22T15:52:57.495Z,8.24
2024-01-22T15:55:24.754Z,8.21
2024-01-22T15:57:51.458Z,8.12
2024-01-22T16:00:19.108Z,8.06
2024-01-22T16:02:45.851Z,8.01
2024-01-22T16:05:13.013Z,8.03
2024-01-22T16:07:41.007Z,8.02
2024-01-22T16:10:09.054Z,7.91
2024-01-22T16:12:35.927Z,7.87
2024-01-22T16:15:03.907Z,7.84
2024-01-22T16:17:34.659Z,7.93
2024-01-22T16:20:02.290Z,7.83
2024-01-22T16:22:29.946Z,7.86
2024-01-22T16:24:58.972Z,7.89
2024-01-22T16:27:25.585Z,7.86
2024-01-22T16:29:54.050Z,7.87
2024-01-22T16:32:21.128Z,7.96
2024-01-22T16:34:48.452Z,7.91
2024-01-22T16:37:19.349Z,7.91
2024-01-22T16:39:47.945Z,7.88
2024-01-22T16:42:16.482Z,7.81
2024-01-22T16:44:44.209Z,7.81
2024-01-22T16:47:11.050Z,7.75
2024-01-22T16:49:38.176Z,7.68
2024-01-22T16:52:07.389Z,7.68
2024-01-22T16:54:34.600Z,7.63
2024-01-22T16:57:02.830Z,7.68
2024-01-22T16:59:31.320Z,7.64
2024-01-22T17:01:58.463Z,7.69
2024-01-22T17:04:28.318Z,7.62
2024-01-22T17:07:09.590Z,7.70
2024-01-22T17:09:39.444Z,7.70
2024-01-22T17:12:09.806Z,7.75
2024-01-22T17:14:37.252Z,7.76
2024-01-22T17:17:07.519Z,7.76
2024-01-22T17:19:34.511Z,7.71
2024-01-22T17:22:02.206Z,7.78
2024-01-22T17:24:29.347Z,7.69
2024-01-22T17:26:56.852Z,7.69
2024-01-22T17:29:23.735Z,7.71
2024-01-22T17:31:50.739Z,7.76
2024-01-22T17:34:18.027Z,7.77
2024-01-22T17:36:44.867Z,7.81
2024-01-22T17:39:12.453Z,7.84
2024-01-22T17:41:40.087Z,7.84
2024-01-22T17:44:08.335Z,7.80
2024-01-22T17:46:35.741Z,7.77
2024-01-22T17:49:02.699Z,7.79
2024-01-22T17:51:29.679Z,7.81
2024-01-22T17:53:56.560Z,7.77
2024-01-22T17:56:23.969Z,7.77
2024-01-22T17:58:50.835Z,7.78
2024-01-22T18:01:18.694Z,7.79
2024-01-22T18:03:46.569Z,7.78
2024-01-22T18:06:20.645Z,7.68
2024-01-22T18:08:47.965Z,7.58
2024-01-22T18:11:18.828Z,7.64
2024-01-22T18:13:46.200Z,7.57
2024-01-22T18:16:14.125Z,7.51
2024-01-22T18:18:41.347Z,7.54
2024-01-22T18:21:09.061Z,7.61
2024-01-22T18:23:36.746Z,7.62
2024-01-22T18:26:07.209Z,7.57
2024-01-22T18:28:35.428Z,7.61
2024-01-22T18:31:02.953Z,7.64
2024-01-22T18:33:30.199Z,7.66
2024-01-22T18:35:59.084Z,7.69
2024-01-22T18:38:26.662Z,7.61
2024-01-22T18:40:54.039Z,7.53
2024-01-22T18:43:21.957Z,7.59
2024-01-22T18:45:49.060Z,7.66
2024-01-22T18:48:15.956Z,7.65
2024-01-22T18:50:42.919Z,7.68
2024-01-22T18:53:10.063Z,7.63
2024-01-22T18:55:40.431Z,7.56
2024-01-22T18:58:07.735Z,7.56
2024-01-22T19:00:35.722Z,7.65
2024-01-22T19:03:02.585Z,7.67
2024-01-22T19:05:29.684Z,7.69
2024-01-22T19:08:20.999Z,7.77
2024-01-22T19:11:06.872Z,7.67
2024-01-22T19:13:33.894Z,7.69
2024-01-22T19:16:00.914Z,7.67
2024-01-22T19:18:28.279Z,7.66
2024-01-22T19:20:55.296Z,7.71
2024-01-22T19:23:22.301Z,7.73
2024-01-22T19:25:49.352Z,7.72
2024-01-22T19:28:15.917Z,7.73
2024-01-22T19:30:43.856Z,7.73
2024-01-22T19:33:11.210Z,7.79
2024-01-22T19:35:38.266Z,7.88
2024-01-22T19:38:04.915Z,7.86
2024-01-22T19:40:33.168Z,7.84
2024-01-22T19:43:00.542Z,7.84
2024-01-22T19:45:27.406Z,7.84
2024-01-22T19:47:56.994Z,7.91
2024-01-22T19:50:23.791Z,7.92
2024-01-22T19:52:51.451Z,7.78
2024-01-22T19:55:18.485Z,7.87
2024-01-22T19:57:45.242Z,7.79
2024-01-22T20:00:13.580Z,7.87
2024-01-22T20:02:41.319Z,7.87
2024-01-22T20:05:08.668Z,7.90
2024-01-22T20:07:35.624Z,7.85
2024-01-22T20:10:02.760Z,7.83
2024-01-22T20:12:31.148Z,7.75
2024-01-22T20:14:57.633Z,7.80
2024-01-22T20:17:25.475Z,7.83
2024-01-22T20:19:52.269Z,7.78
2024-01-22T20:22:18.960Z,7.79
2024-01-22T20:24:45.571Z,7.81
2024-01-22T20:27:12.253Z,7.74
2024-01-22T20:29:40.616Z,7.77
2024-01-22T20:32:09.416Z,7.82
2024-01-22T20:34:36.586Z,7.73
2024-01-22T20:37:04.837Z,7.73
2024-01-22T20:39:32.619Z,7.70
2024-01-22T20:42:00.093Z,7.62
2024-01-22T20:44:27.167Z,7.54
2024-01-22T20:46:54.608Z,7.52
2024-01-22T20:49:22.872Z,7.45
2024-01-22T20:51:51.145Z,7.42
2024-01-22T20:54:18.523Z,7.32
2024-01-22T20:56:47.657Z,7.28
2024-01-22T20:59:15.093Z,7.24
2024-01-22T21:01:47.777Z,7.15
2024-01-22T21:04:15.708Z,7.24
2024-01-22T21:06:44.038Z,7.12
2024-01-22T21:09:16.069Z,7.00
2024-01-22T21:11:45.595Z,7.04
2024-01-22T21:14:13.772Z,7.02
2024-01-22T21:16:41.919Z,7.01
2024-01-22T21:19:09.040Z,6.96
2024-01-22T21:21:47.561Z,6.92
2024-01-22T21:24:15.414Z,6.89
2024-01-22T21:26:47.511Z,6.92
2024-01-22T21:29:14.954Z,6.90
2024-01-22T21:31:42.726Z,6.82
2024-01-22T21:34:11.084Z,6.88
2024-01-22T21:36:41.593Z,6.90
2024-01-22T21:39:09.748Z,6.91
2024-01-22T21:41:37.463Z,6.92
2024-01-22T21:44:04.621Z,6.95
2024-01-22T21:46:33.453Z,6.92
2024-01-22T21:49:01.141Z,6.96
2024-01-22T21:51:29.340Z,7.00
2024-01-22T21:53:56.600Z,7.06
2024-01-22T21:56:24.071Z,7.13
2024-01-22T21:58:51.146Z,7.07
2024-01-22T22:01:21.484Z,7.13
2024-01-22T22:03:48.837Z,7.13
2024-01-22T22:06:17.045Z,7.12
2024-01-22T22:08:45.715Z,7.09
2024-01-22T22:11:13.600Z,7.07
2024-01-22T22:13:40.613Z,7.11
2024-01-22T22:16:10.195Z,7.09
2024-01-22T22:18:37.635Z,7.08
2024-01-22T22:21:06.900Z,7.11
2024-01-22T22:23:37.412Z,7.12
2024-01-22T22:26:05.342Z,7.10
2024-01-22T22:28:32.101Z,7.15
2024-01-22T22:31:00.383Z,7.13
2024-01-22T22:33:27.899Z,7.17
2024-01-22T22:35:54.949Z,7.15
2024-01-22T22:38:25.218Z,7.21
2024-01-22T22:40:52.360Z,7.36
2024-01-22T22:43:22.136Z,7.46
2024-01-22T22:45:49.870Z,7.36
2024-01-22T22:48:16.891Z,7.39
2024-01-22T22:50:44.146Z,7.35
2024-01-22T22:53:11.172Z,7.37
2024-01-22T22:55:38.629Z,7.33
2024-01-22T22:58:05.488Z,7.34
2024-01-22T23:00:32.849Z,7.28
2024-01-22T23:02:59.837Z,7.18
2024-01-22T23:05:26.834Z,7.23
2024-01-22T23:07:53.772Z,7.23
2024-01-22T23:10:22.154Z,7.24
2024-01-22T23:12:48.799Z,7.23
2024-01-22T23:15:16.088Z,7.29
2024-01-22T23:17:44.766Z,7.21
2024-01-22T23:20:14.569Z,7.24
2024-01-22T23:22:41.796Z,7.12
2024-01-22T23:25:09.093Z,7.10
2024-01-22T23:27:36.508Z,7.09
2024-01-22T23:30:06.033Z,7.10
2024-01-22T23:32:37.648Z,7.14
2024-01-22T23:35:04.995Z,7.07
2024-01-22T23:37:32.201Z,6.97
2024-01-22T23:40:00.543Z,6.97
2024-01-22T23:42:27.436Z,6.94
2024-01-22T23:44:54.916Z,6.90
2024-01-22T23:47:26.166Z,6.95
2024-01-22T23:49:53.043Z,6.94
2024-01-22T23:52:19.810Z,6.88
2024-01-22T23:54:46.687Z,6.88
2024-01-22T23:57:14.428Z,6.84
2024-01-22T23:59:44.743Z,7.00
